sensor_id;sensor_type;location;lat;lon;timestamp;P1;durP1;ratioP1;P2;durP2;ratioP2
14048;SDS011;7099;53.922;10.728;2023-02-28T00:00:01;13.80;;;6.90;;
14048;SDS011;7099;53.922;10.728;2023-02-28T00:04:14;10.30;;;6.73;;
14048;SDS011;7099;53.922;10.728;2023-02-28T00:08:20;10.40;;;6.27;;
14048;SDS011;7099;53.922;10.728;2023-02-28T00:12:25;9.77;;;6.60;;
14048;SDS011;7099;53.922;10.728;2023-02-28T00:16:32;14.23;;;7.00;;
14048;SDS011;7099;53.922;10.728;2023-02-28T00:20:37;10.90;;;6.90;;
14048;SDS011;7099;53.922;10.728;2023-02-28T00:24:43;14.03;;;7.00;;
14048;SDS011;7099;53.922;10.728;2023-02-28T00:28:49;11.27;;;6.27;;
14048;SDS011;7099;53.922;10.728;2023-02-28T00:32:57;12.07;;;7.00;;
14048;SDS011;7099;53.922;10.728;2023-02-28T00:37:07;11.40;;;6.37;;
14048;SDS011;7099;53.922;10.728;2023-02-28T00:41:16;11.70;;;6.43;;
14048;SDS011;7099;53.922;10.728;2023-02-28T00:45:22;13.20;;;6.77;;
14048;SDS011;7099;53.922;10.728;2023-02-28T00:49:28;16.63;;;6.47;;
14048;SDS011;7099;53.922;10.728;2023-02-28T00:53:33;9.27;;;5.80;;
14048;SDS011;7099;53.922;10.728;2023-02-28T00:57:39;11.93;;;6.33;;
14048;SDS011;7099;53.922;10.728;2023-02-28T01:01:45;10.63;;;6.53;;
14048;SDS011;7099;53.922;10.728;2023-02-28T01:05:51;12.60;;;6.70;;
14048;SDS011;7099;53.922;10.728;2023-02-28T01:09:57;13.63;;;6.50;;
14048;SDS011;7099;53.922;10.728;2023-02-28T01:14:03;10.63;;;6.07;;
14048;SDS011;7099;53.922;10.728;2023-02-28T01:18:09;12.70;;;5.80;;
14048;SDS011;7099;53.922;10.728;2023-02-28T01:22:14;11.00;;;6.73;;
14048;SDS011;7099;53.922;10.728;2023-02-28T01:26:20;15.53;;;6.93;;
14048;SDS011;7099;53.922;10.728;2023-02-28T01:30:27;9.67;;;6.13;;
14048;SDS011;7099;53.922;10.728;2023-02-28T01:34:32;11.20;;;6.37;;
14048;SDS011;7099;53.922;10.728;2023-02-28T01:38:38;10.50;;;6.27;;
14048;SDS011;7099;53.922;10.728;2023-02-28T01:42:44;10.93;;;6.17;;
14048;SDS011;7099;53.922;10.728;2023-02-28T01:46:50;11.83;;;6.17;;
14048;SDS011;7099;53.922;10.728;2023-02-28T01:50:56;10.27;;;6.40;;
14048;SDS011;7099;53.922;10.728;2023-02-28T01:55:08;8.97;;;6.20;;
14048;SDS011;7099;53.922;10.728;2023-02-28T01:59:20;8.37;;;5.00;;
14048;SDS011;7099;53.922;10.728;2023-02-28T02:03:36;9.63;;;6.23;;
14048;SDS011;7099;53.922;10.728;2023-02-28T02:07:43;11.33;;;6.30;;
14048;SDS011;7099;53.922;10.728;2023-02-28T02:11:53;10.23;;;6.30;;
14048;SDS011;7099;53.922;10.728;2023-02-28T02:30:18;8.30;;;6.00;;
14048;SDS011;7099;53.922;10.728;2023-02-28T02:39:02;11.63;;;6.23;;
14048;SDS011;7099;53.922;10.728;2023-02-28T02:43:13;10.80;;;6.10;;
14048;SDS011;7099;53.922;10.728;2023-02-28T02:47:29;11.27;;;5.70;;
14048;SDS011;7099;53.922;10.728;2023-02-28T02:51:36;11.03;;;6.00;;
14048;SDS011;7099;53.922;10.728;2023-02-28T02:55:44;8.20;;;5.63;;
14048;SDS011;7099;53.922;10.728;2023-02-28T02:59:57;9.77;;;6.27;;
14048;SDS011;7099;53.922;10.728;2023-02-28T03:04:12;10.23;;;6.27;;
14048;SDS011;7099;53.922;10.728;2023-02-28T03:08:23;9.20;;;5.20;;
14048;SDS011;7099;53.922;10.728;2023-02-28T03:12:32;7.47;;;5.23;;
14048;SDS011;7099;53.922;10.728;2023-02-28T03:17:09;16.83;;;5.13;;
14048;SDS011;7099;53.922;10.728;2023-02-28T03:21:43;9.90;;;5.40;;
14048;SDS011;7099;53.922;10.728;2023-02-28T03:25:57;7.43;;;5.13;;
14048;SDS011;7099;53.922;10.728;2023-02-28T03:30:10;9.73;;;5.37;;
14048;SDS011;7099;53.922;10.728;2023-02-28T03:34:17;16.97;;;8.53;;
14048;SDS011;7099;53.922;10.728;2023-02-28T03:43:02;13.03;;;6.43;;
14048;SDS011;7099;53.922;10.728;2023-02-28T03:47:21;11.77;;;5.70;;
14048;SDS011;7099;53.922;10.728;2023-02-28T03:51:35;11.80;;;5.23;;
14048;SDS011;7099;53.922;10.728;2023-02-28T03:55:54;10.30;;;4.43;;
14048;SDS011;7099;53.922;10.728;2023-02-28T04:04:21;6.30;;;4.67;;
14048;SDS011;7099;53.922;10.728;2023-02-28T04:08:27;8.00;;;5.17;;
14048;SDS011;7099;53.922;10.728;2023-02-28T04:12:32;11.43;;;4.70;;
14048;SDS011;7099;53.922;10.728;2023-02-28T04:16:40;9.23;;;4.70;;
14048;SDS011;7099;53.922;10.728;2023-02-28T04:20:46;7.17;;;4.33;;
14048;SDS011;7099;53.922;10.728;2023-02-28T04:24:52;7.43;;;4.20;;
14048;SDS011;7099;53.922;10.728;2023-02-28T04:28:59;8.53;;;3.97;;
14048;SDS011;7099;53.922;10.728;2023-02-28T04:33:06;5.47;;;3.73;;
14048;SDS011;7099;53.922;10.728;2023-02-28T04:37:12;9.40;;;4.93;;
14048;SDS011;7099;53.922;10.728;2023-02-28T04:41:18;5.37;;;4.50;;
14048;SDS011;7099;53.922;10.728;2023-02-28T04:45:24;10.67;;;4.40;;
14048;SDS011;7099;53.922;10.728;2023-02-28T04:49:29;7.60;;;4.47;;
14048;SDS011;7099;53.922;10.728;2023-02-28T04:53:36;7.33;;;4.50;;
14048;SDS011;7099;53.922;10.728;2023-02-28T04:57:43;16.73;;;5.07;;
14048;SDS011;7099;53.922;10.728;2023-02-28T05:01:49;7.00;;;3.93;;
14048;SDS011;7099;53.922;10.728;2023-02-28T05:05:54;7.30;;;4.57;;
14048;SDS011;7099;53.922;10.728;2023-02-28T05:10:00;6.40;;;4.30;;
14048;SDS011;7099;53.922;10.728;2023-02-28T05:14:08;7.80;;;4.10;;
14048;SDS011;7099;53.922;10.728;2023-02-28T05:18:16;11.03;;;4.17;;
14048;SDS011;7099;53.922;10.728;2023-02-28T05:22:22;6.30;;;4.17;;
14048;SDS011;7099;53.922;10.728;2023-02-28T05:26:28;5.67;;;4.00;;
14048;SDS011;7099;53.922;10.728;2023-02-28T05:30:34;5.83;;;3.80;;
14048;SDS011;7099;53.922;10.728;2023-02-28T05:34:40;8.57;;;4.70;;
14048;SDS011;7099;53.922;10.728;2023-02-28T05:38:47;7.47;;;3.60;;
14048;SDS011;7099;53.922;10.728;2023-02-28T05:42:53;7.90;;;3.87;;
14048;SDS011;7099;53.922;10.728;2023-02-28T05:46:59;8.93;;;4.33;;
14048;SDS011;7099;53.922;10.728;2023-02-28T05:51:05;5.00;;;3.23;;
14048;SDS011;7099;53.922;10.728;2023-02-28T05:55:11;6.17;;;3.77;;
14048;SDS011;7099;53.922;10.728;2023-02-28T05:59:17;5.00;;;4.10;;
14048;SDS011;7099;53.922;10.728;2023-02-28T06:03:22;5.10;;;3.57;;
14048;SDS011;7099;53.922;10.728;2023-02-28T06:07:28;8.43;;;3.93;;
14048;SDS011;7099;53.922;10.728;2023-02-28T06:11:34;6.23;;;4.23;;
14048;SDS011;7099;53.922;10.728;2023-02-28T06:15:39;7.13;;;5.23;;
14048;SDS011;7099;53.922;10.728;2023-02-28T06:19:45;9.33;;;5.90;;
14048;SDS011;7099;53.922;10.728;2023-02-28T06:23:51;10.27;;;4.47;;
14048;SDS011;7099;53.922;10.728;2023-02-28T06:27:56;6.67;;;4.00;;
14048;SDS011;7099;53.922;10.728;2023-02-28T06:32:02;5.30;;;3.97;;
14048;SDS011;7099;53.922;10.728;2023-02-28T06:36:08;5.87;;;4.50;;
14048;SDS011;7099;53.922;10.728;2023-02-28T06:40:16;8.50;;;4.67;;
14048;SDS011;7099;53.922;10.728;2023-02-28T06:44:22;9.90;;;4.90;;
14048;SDS011;7099;53.922;10.728;2023-02-28T06:48:29;8.60;;;4.87;;
14048;SDS011;7099;53.922;10.728;2023-02-28T06:52:35;14.13;;;5.13;;
14048;SDS011;7099;53.922;10.728;2023-02-28T06:56:43;12.07;;;5.57;;
14048;SDS011;7099;53.922;10.728;2023-02-28T07:00:50;10.00;;;5.10;;
14048;SDS011;7099;53.922;10.728;2023-02-28T07:04:57;8.10;;;5.30;;
14048;SDS011;7099;53.922;10.728;2023-02-28T07:09:02;7.10;;;4.70;;
14048;SDS011;7099;53.922;10.728;2023-02-28T07:13:08;8.83;;;5.70;;
14048;SDS011;7099;53.922;10.728;2023-02-28T07:17:14;10.53;;;4.80;;
14048;SDS011;7099;53.922;10.728;2023-02-28T07:21:21;6.60;;;4.37;;
14048;SDS011;7099;53.922;10.728;2023-02-28T07:25:27;5.53;;;3.80;;
14048;SDS011;7099;53.922;10.728;2023-02-28T07:29:33;10.70;;;4.10;;
14048;SDS011;7099;53.922;10.728;2023-02-28T07:33:39;6.77;;;3.80;;
14048;SDS011;7099;53.922;10.728;2023-02-28T07:37:45;6.57;;;3.63;;
14048;SDS011;7099;53.922;10.728;2023-02-28T07:41:52;8.17;;;3.50;;
14048;SDS011;7099;53.922;10.728;2023-02-28T07:46:04;4.83;;;4.10;;
14048;SDS011;7099;53.922;10.728;2023-02-28T07:50:13;5.20;;;3.60;;
14048;SDS011;7099;53.922;10.728;2023-02-28T07:54:20;5.67;;;3.40;;
14048;SDS011;7099;53.922;10.728;2023-02-28T07:58:26;8.40;;;4.00;;
14048;SDS011;7099;53.922;10.728;2023-02-28T08:02:33;4.30;;;3.47;;
14048;SDS011;7099;53.922;10.728;2023-02-28T08:06:39;9.90;;;3.40;;
14048;SDS011;7099;53.922;10.728;2023-02-28T08:10:45;4.50;;;3.40;;
14048;SDS011;7099;53.922;10.728;2023-02-28T08:14:50;7.47;;;3.67;;
14048;SDS011;7099;53.922;10.728;2023-02-28T08:18:56;6.83;;;3.50;;
14048;SDS011;7099;53.922;10.728;2023-02-28T08:23:02;6.00;;;4.40;;
14048;SDS011;7099;53.922;10.728;2023-02-28T08:27:07;7.63;;;4.70;;
14048;SDS011;7099;53.922;10.728;2023-02-28T08:31:14;14.27;;;4.10;;
14048;SDS011;7099;53.922;10.728;2023-02-28T08:35:21;10.33;;;4.40;;
14048;SDS011;7099;53.922;10.728;2023-02-28T08:39:27;4.70;;;3.63;;
14048;SDS011;7099;53.922;10.728;2023-02-28T08:43:33;5.63;;;3.63;;
14048;SDS011;7099;53.922;10.728;2023-02-28T08:47:40;8.63;;;4.33;;
14048;SDS011;7099;53.922;10.728;2023-02-28T08:51:45;4.90;;;3.87;;
14048;SDS011;7099;53.922;10.728;2023-02-28T08:55:58;4.87;;;3.57;;
14048;SDS011;7099;53.922;10.728;2023-02-28T09:00:09;7.63;;;5.20;;
14048;SDS011;7099;53.922;10.728;2023-02-28T09:04:18;6.00;;;4.00;;
14048;SDS011;7099;53.922;10.728;2023-02-28T09:08:25;13.50;;;4.40;;
14048;SDS011;7099;53.922;10.728;2023-02-28T09:12:33;9.73;;;4.17;;
14048;SDS011;7099;53.922;10.728;2023-02-28T09:16:40;6.93;;;4.10;;
14048;SDS011;7099;53.922;10.728;2023-02-28T09:20:45;7.97;;;4.50;;
14048;SDS011;7099;53.922;10.728;2023-02-28T09:24:51;13.23;;;4.10;;
14048;SDS011;7099;53.922;10.728;2023-02-28T09:28:57;4.93;;;3.47;;
14048;SDS011;7099;53.922;10.728;2023-02-28T09:33:03;8.27;;;3.47;;
14048;SDS011;7099;53.922;10.728;2023-02-28T09:37:09;8.40;;;3.07;;
14048;SDS011;7099;53.922;10.728;2023-02-28T09:41:48;4.57;;;3.10;;
14048;SDS011;7099;53.922;10.728;2023-02-28T09:45:57;11.70;;;3.40;;
14048;SDS011;7099;53.922;10.728;2023-02-28T09:54:37;10.87;;;3.60;;
14048;SDS011;7099;53.922;10.728;2023-02-28T09:58:48;7.37;;;3.13;;
14048;SDS011;7099;53.922;10.728;2023-02-28T10:07:48;9.73;;;2.80;;
14048;SDS011;7099;53.922;10.728;2023-02-28T10:12:22;7.73;;;4.13;;
14048;SDS011;7099;53.922;10.728;2023-02-28T10:21:29;6.60;;;2.70;;
14048;SDS011;7099;53.922;10.728;2023-02-28T10:25:41;3.33;;;2.30;;
14048;SDS011;7099;53.922;10.728;2023-02-28T10:30:20;5.27;;;2.27;;
14048;SDS011;7099;53.922;10.728;2023-02-28T10:34:26;8.93;;;2.50;;
14048;SDS011;7099;53.922;10.728;2023-02-28T10:38:33;4.40;;;2.07;;
14048;SDS011;7099;53.922;10.728;2023-02-28T10:42:41;6.33;;;3.00;;
14048;SDS011;7099;53.922;10.728;2023-02-28T10:46:47;4.90;;;2.70;;
14048;SDS011;7099;53.922;10.728;2023-02-28T10:50:54;2.60;;;2.20;;
14048;SDS011;7099;53.922;10.728;2023-02-28T10:55:22;5.37;;;2.00;;
14048;SDS011;7099;53.922;10.728;2023-02-28T10:59:30;4.70;;;2.50;;
14048;SDS011;7099;53.922;10.728;2023-02-28T11:03:36;4.60;;;2.30;;
14048;SDS011;7099;53.922;10.728;2023-02-28T11:07:41;9.27;;;2.03;;
14048;SDS011;7099;53.922;10.728;2023-02-28T11:11:59;2.77;;;2.00;;
14048;SDS011;7099;53.922;10.728;2023-02-28T11:16:10;4.60;;;2.50;;
14048;SDS011;7099;53.922;10.728;2023-02-28T11:20:20;4.57;;;2.40;;
14048;SDS011;7099;53.922;10.728;2023-02-28T11:24:30;7.63;;;2.47;;
14048;SDS011;7099;53.922;10.728;2023-02-28T11:28:41;4.27;;;2.00;;
14048;SDS011;7099;53.922;10.728;2023-02-28T11:32:48;5.57;;;2.50;;
14048;SDS011;7099;53.922;10.728;2023-02-28T11:36:55;2.50;;;2.10;;
14048;SDS011;7099;53.922;10.728;2023-02-28T11:41:50;4.90;;;3.10;;
14048;SDS011;7099;53.922;10.728;2023-02-28T11:46:25;5.43;;;2.10;;
14048;SDS011;7099;53.922;10.728;2023-02-28T11:50:46;4.00;;;2.00;;
14048;SDS011;7099;53.922;10.728;2023-02-28T12:00:16;4.50;;;2.10;;
14048;SDS011;7099;53.922;10.728;2023-02-28T12:27:37;4.60;;;2.20;;
14048;SDS011;7099;53.922;10.728;2023-02-28T12:31:53;4.40;;;2.43;;
14048;SDS011;7099;53.922;10.728;2023-02-28T12:36:13;4.60;;;2.30;;
14048;SDS011;7099;53.922;10.728;2023-02-28T12:40:25;3.10;;;2.10;;
14048;SDS011;7099;53.922;10.728;2023-02-28T12:44:52;7.13;;;2.57;;
14048;SDS011;7099;53.922;10.728;2023-02-28T12:49:08;2.57;;;2.10;;
14048;SDS011;7099;53.922;10.728;2023-02-28T12:53:49;4.00;;;2.10;;
14048;SDS011;7099;53.922;10.728;2023-02-28T12:58:35;3.17;;;1.57;;
14048;SDS011;7099;53.922;10.728;2023-02-28T13:11:57;2.40;;;1.60;;
14048;SDS011;7099;53.922;10.728;2023-02-28T13:16:09;2.07;;;1.67;;
14048;SDS011;7099;53.922;10.728;2023-02-28T13:20:17;3.90;;;2.00;;
14048;SDS011;7099;53.922;10.728;2023-02-28T13:24:49;3.53;;;1.60;;
14048;SDS011;7099;53.922;10.728;2023-02-28T13:38:17;3.63;;;1.73;;
14048;SDS011;7099;53.922;10.728;2023-02-28T13:42:48;4.43;;;1.50;;
14048;SDS011;7099;53.922;10.728;2023-02-28T13:51:25;4.53;;;1.60;;
14048;SDS011;7099;53.922;10.728;2023-02-28T13:55:49;4.63;;;1.90;;
14048;SDS011;7099;53.922;10.728;2023-02-28T14:00:34;2.97;;;1.67;;
14048;SDS011;7099;53.922;10.728;2023-02-28T14:05:05;5.30;;;2.10;;
14048;SDS011;7099;53.922;10.728;2023-02-28T14:09:25;1.60;;;1.40;;
14048;SDS011;7099;53.922;10.728;2023-02-28T14:13:45;4.00;;;1.73;;
14048;SDS011;7099;53.922;10.728;2023-02-28T14:17:52;2.90;;;1.70;;
14048;SDS011;7099;53.922;10.728;2023-02-28T14:22:03;2.30;;;1.37;;
14048;SDS011;7099;53.922;10.728;2023-02-28T14:39:31;2.20;;;1.60;;
14048;SDS011;7099;53.922;10.728;2023-02-28T14:43:47;1.77;;;1.40;;
14048;SDS011;7099;53.922;10.728;2023-02-28T14:48:01;2.43;;;1.70;;
14048;SDS011;7099;53.922;10.728;2023-02-28T14:56:21;3.30;;;1.40;;
14048;SDS011;7099;53.922;10.728;2023-02-28T15:00:36;1.37;;;1.10;;
14048;SDS011;7099;53.922;10.728;2023-02-28T15:05:10;1.70;;;1.50;;
14048;SDS011;7099;53.922;10.728;2023-02-28T15:09:17;2.23;;;1.40;;
14048;SDS011;7099;53.922;10.728;2023-02-28T15:13:26;2.17;;;1.40;;
14048;SDS011;7099;53.922;10.728;2023-02-28T15:17:52;2.73;;;1.17;;
14048;SDS011;7099;53.922;10.728;2023-02-28T15:22:06;1.70;;;1.10;;
14048;SDS011;7099;53.922;10.728;2023-02-28T15:26:22;2.10;;;1.07;;
14048;SDS011;7099;53.922;10.728;2023-02-28T15:30:34;3.10;;;1.40;;
14048;SDS011;7099;53.922;10.728;2023-02-28T15:34:42;1.07;;;1.00;;
14048;SDS011;7099;53.922;10.728;2023-02-28T15:38:52;1.83;;;1.10;;
14048;SDS011;7099;53.922;10.728;2023-02-28T15:47:20;2.03;;;1.20;;
14048;SDS011;7099;53.922;10.728;2023-02-28T15:51:30;2.90;;;1.30;;
14048;SDS011;7099;53.922;10.728;2023-02-28T15:55:41;2.93;;;1.30;;
14048;SDS011;7099;53.922;10.728;2023-02-28T15:59:57;2.43;;;1.10;;
14048;SDS011;7099;53.922;10.728;2023-02-28T16:04:16;6.10;;;1.30;;
14048;SDS011;7099;53.922;10.728;2023-02-28T16:08:24;2.60;;;1.60;;
14048;SDS011;7099;53.922;10.728;2023-02-28T16:12:30;2.13;;;1.43;;
14048;SDS011;7099;53.922;10.728;2023-02-28T16:16:41;1.77;;;1.40;;
14048;SDS011;7099;53.922;10.728;2023-02-28T16:20:49;1.43;;;1.30;;
14048;SDS011;7099;53.922;10.728;2023-02-28T16:24:55;2.90;;;1.33;;
14048;SDS011;7099;53.922;10.728;2023-02-28T16:29:00;4.70;;;1.20;;
14048;SDS011;7099;53.922;10.728;2023-02-28T16:33:07;2.03;;;1.30;;
14048;SDS011;7099;53.922;10.728;2023-02-28T16:37:14;3.47;;;1.27;;
14048;SDS011;7099;53.922;10.728;2023-02-28T16:41:23;1.83;;;1.30;;
14048;SDS011;7099;53.922;10.728;2023-02-28T16:45:32;2.97;;;1.07;;
14048;SDS011;7099;53.922;10.728;2023-02-28T16:49:38;4.63;;;1.50;;
14048;SDS011;7099;53.922;10.728;2023-02-28T16:53:46;6.63;;;1.90;;
14048;SDS011;7099;53.922;10.728;2023-02-28T16:58:01;6.37;;;1.77;;
14048;SDS011;7099;53.922;10.728;2023-02-28T17:02:11;3.70;;;1.87;;
14048;SDS011;7099;53.922;10.728;2023-02-28T17:06:20;2.33;;;1.83;;
14048;SDS011;7099;53.922;10.728;2023-02-28T17:10:33;2.07;;;1.80;;
14048;SDS011;7099;53.922;10.728;2023-02-28T17:14:38;7.60;;;2.50;;
14048;SDS011;7099;53.922;10.728;2023-02-28T17:18:44;3.50;;;2.13;;
14048;SDS011;7099;53.922;10.728;2023-02-28T17:22:50;6.90;;;2.53;;
14048;SDS011;7099;53.922;10.728;2023-02-28T17:26:55;7.67;;;2.50;;
14048;SDS011;7099;53.922;10.728;2023-02-28T17:31:01;2.87;;;2.40;;
14048;SDS011;7099;53.922;10.728;2023-02-28T17:35:07;4.57;;;3.40;;
14048;SDS011;7099;53.922;10.728;2023-02-28T17:39:13;4.20;;;2.80;;
14048;SDS011;7099;53.922;10.728;2023-02-28T17:43:20;3.47;;;2.40;;
14048;SDS011;7099;53.922;10.728;2023-02-28T17:47:25;3.30;;;2.60;;
14048;SDS011;7099;53.922;10.728;2023-02-28T17:51:31;5.17;;;2.70;;
14048;SDS011;7099;53.922;10.728;2023-02-28T17:55:36;11.20;;;4.60;;
14048;SDS011;7099;53.922;10.728;2023-02-28T17:59:42;4.53;;;3.33;;
14048;SDS011;7099;53.922;10.728;2023-02-28T18:03:48;5.63;;;3.30;;
14048;SDS011;7099;53.922;10.728;2023-02-28T18:07:54;5.97;;;4.00;;
14048;SDS011;7099;53.922;10.728;2023-02-28T18:11:59;8.60;;;4.90;;
14048;SDS011;7099;53.922;10.728;2023-02-28T18:16:05;8.07;;;4.80;;
14048;SDS011;7099;53.922;10.728;2023-02-28T18:20:11;8.27;;;5.10;;
14048;SDS011;7099;53.922;10.728;2023-02-28T18:24:18;7.77;;;5.23;;
14048;SDS011;7099;53.922;10.728;2023-02-28T18:28:26;6.73;;;4.77;;
14048;SDS011;7099;53.922;10.728;2023-02-28T18:32:31;7.67;;;5.43;;
14048;SDS011;7099;53.922;10.728;2023-02-28T18:36:37;15.23;;;9.07;;
14048;SDS011;7099;53.922;10.728;2023-02-28T18:40:50;19.60;;;10.67;;
14048;SDS011;7099;53.922;10.728;2023-02-28T18:44:59;14.10;;;8.30;;
14048;SDS011;7099;53.922;10.728;2023-02-28T18:49:04;11.13;;;6.40;;
14048;SDS011;7099;53.922;10.728;2023-02-28T18:53:10;15.17;;;7.70;;
14048;SDS011;7099;53.922;10.728;2023-02-28T18:57:16;11.47;;;6.87;;
14048;SDS011;7099;53.922;10.728;2023-02-28T19:01:23;7.63;;;4.90;;
14048;SDS011;7099;53.922;10.728;2023-02-28T19:05:37;5.30;;;3.73;;
14048;SDS011;7099;53.922;10.728;2023-02-28T19:09:43;5.67;;;3.90;;
14048;SDS011;7099;53.922;10.728;2023-02-28T19:13:49;9.00;;;4.13;;
14048;SDS011;7099;53.922;10.728;2023-02-28T19:17:54;8.20;;;4.80;;
14048;SDS011;7099;53.922;10.728;2023-02-28T19:22:00;8.17;;;4.83;;
14048;SDS011;7099;53.922;10.728;2023-02-28T19:26:06;9.00;;;5.00;;
14048;SDS011;7099;53.922;10.728;2023-02-28T19:30:13;8.10;;;5.10;;
14048;SDS011;7099;53.922;10.728;2023-02-28T19:34:19;9.77;;;5.40;;
14048;SDS011;7099;53.922;10.728;2023-02-28T19:38:25;12.27;;;6.50;;
14048;SDS011;7099;53.922;10.728;2023-02-28T19:42:30;9.27;;;5.93;;
14048;SDS011;7099;53.922;10.728;2023-02-28T19:46:38;13.37;;;7.43;;
14048;SDS011;7099;53.922;10.728;2023-02-28T19:50:43;13.27;;;7.80;;
14048;SDS011;7099;53.922;10.728;2023-02-28T19:54:49;9.40;;;6.00;;
14048;SDS011;7099;53.922;10.728;2023-02-28T19:58:56;6.77;;;4.80;;
14048;SDS011;7099;53.922;10.728;2023-02-28T20:03:02;13.20;;;4.80;;
14048;SDS011;7099;53.922;10.728;2023-02-28T20:07:07;15.80;;;5.40;;
14048;SDS011;7099;53.922;10.728;2023-02-28T20:11:14;10.13;;;6.10;;
14048;SDS011;7099;53.922;10.728;2023-02-28T20:15:21;6.97;;;5.00;;
14048;SDS011;7099;53.922;10.728;2023-02-28T20:19:27;12.40;;;6.70;;
14048;SDS011;7099;53.922;10.728;2023-02-28T20:23:32;15.40;;;7.67;;
14048;SDS011;7099;53.922;10.728;2023-02-28T20:27:39;10.57;;;7.20;;
14048;SDS011;7099;53.922;10.728;2023-02-28T20:31:44;15.53;;;6.87;;
14048;SDS011;7099;53.922;10.728;2023-02-28T20:35:57;13.90;;;6.43;;
14048;SDS011;7099;53.922;10.728;2023-02-28T20:40:04;12.60;;;6.30;;
14048;SDS011;7099;53.922;10.728;2023-02-28T20:44:11;12.50;;;5.50;;
14048;SDS011;7099;53.922;10.728;2023-02-28T20:48:17;14.27;;;6.87;;
14048;SDS011;7099;53.922;10.728;2023-02-28T20:52:23;14.23;;;6.10;;
14048;SDS011;7099;53.922;10.728;2023-02-28T20:56:28;15.97;;;6.10;;
14048;SDS011;7099;53.922;10.728;2023-02-28T21:00:34;14.43;;;7.27;;
14048;SDS011;7099;53.922;10.728;2023-02-28T21:04:41;11.57;;;7.10;;
14048;SDS011;7099;53.922;10.728;2023-02-28T21:08:48;17.63;;;7.10;;
14048;SDS011;7099;53.922;10.728;2023-02-28T21:12:54;15.70;;;7.10;;
14048;SDS011;7099;53.922;10.728;2023-02-28T21:17:01;13.30;;;6.57;;
14048;SDS011;7099;53.922;10.728;2023-02-28T21:21:14;12.30;;;6.90;;
14048;SDS011;7099;53.922;10.728;2023-02-28T21:25:26;10.80;;;6.50;;
14048;SDS011;7099;53.922;10.728;2023-02-28T21:29:32;14.73;;;7.93;;
14048;SDS011;7099;53.922;10.728;2023-02-28T21:33:38;16.53;;;6.03;;
14048;SDS011;7099;53.922;10.728;2023-02-28T21:37:44;12.23;;;6.10;;
14048;SDS011;7099;53.922;10.728;2023-02-28T21:41:50;11.77;;;5.93;;
14048;SDS011;7099;53.922;10.728;2023-02-28T21:46:01;13.90;;;6.77;;
14048;SDS011;7099;53.922;10.728;2023-02-28T21:50:08;8.97;;;6.23;;
14048;SDS011;7099;53.922;10.728;2023-02-28T21:54:14;13.20;;;6.40;;
14048;SDS011;7099;53.922;10.728;2023-02-28T21:58:20;13.23;;;6.30;;
14048;SDS011;7099;53.922;10.728;2023-02-28T22:02:26;10.80;;;6.60;;
14048;SDS011;7099;53.922;10.728;2023-02-28T22:06:35;14.43;;;6.90;;
14048;SDS011;7099;53.922;10.728;2023-02-28T22:10:43;12.20;;;6.37;;
14048;SDS011;7099;53.922;10.728;2023-02-28T22:14:49;9.73;;;5.83;;
14048;SDS011;7099;53.922;10.728;2023-02-28T22:18:54;14.83;;;6.60;;
14048;SDS011;7099;53.922;10.728;2023-02-28T22:23:00;11.63;;;5.83;;
14048;SDS011;7099;53.922;10.728;2023-02-28T22:27:05;10.00;;;5.90;;
14048;SDS011;7099;53.922;10.728;2023-02-28T22:31:16;12.50;;;6.23;;
14048;SDS011;7099;53.922;10.728;2023-02-28T22:35:24;14.63;;;7.10;;
14048;SDS011;7099;53.922;10.728;2023-02-28T22:39:29;13.10;;;6.67;;
14048;SDS011;7099;53.922;10.728;2023-02-28T22:43:35;14.40;;;6.33;;
14048;SDS011;7099;53.922;10.728;2023-02-28T22:47:42;13.10;;;5.90;;
14048;SDS011;7099;53.922;10.728;2023-02-28T22:51:47;11.67;;;6.13;;
14048;SDS011;7099;53.922;10.728;2023-02-28T22:55:54;19.90;;;6.13;;
14048;SDS011;7099;53.922;10.728;2023-02-28T23:00:00;9.07;;;5.80;;
14048;SDS011;7099;53.922;10.728;2023-02-28T23:04:05;11.27;;;6.70;;
14048;SDS011;7099;53.922;10.728;2023-02-28T23:08:11;16.90;;;7.20;;
14048;SDS011;7099;53.922;10.728;2023-02-28T23:12:17;20.90;;;9.63;;
14048;SDS011;7099;53.922;10.728;2023-02-28T23:16:30;12.47;;;7.67;;
14048;SDS011;7099;53.922;10.728;2023-02-28T23:20:47;11.93;;;7.50;;
14048;SDS011;7099;53.922;10.728;2023-02-28T23:24:53;13.10;;;7.67;;
14048;SDS011;7099;53.922;10.728;2023-02-28T23:28:58;12.97;;;7.40;;
14048;SDS011;7099;53.922;10.728;2023-02-28T23:33:05;12.40;;;7.40;;
14048;SDS011;7099;53.922;10.728;2023-02-28T23:37:11;12.83;;;6.80;;
14048;SDS011;7099;53.922;10.728;2023-02-28T23:41:17;10.77;;;6.10;;
14048;SDS011;7099;53.922;10.728;2023-02-28T23:45:23;11.77;;;6.77;;
14048;SDS011;7099;53.922;10.728;2023-02-28T23:49:29;8.77;;;5.93;;
14048;SDS011;7099;53.922;10.728;2023-02-28T23:53:38;13.40;;;6.17;;
14048;SDS011;7099;53.922;10.728;2023-02-28T23:57:47;12.50;;;6.03;;
